Andoya, Norway

12:25 AM CET on December 20, 2014 (GMT +0100)
Skrolsvik | Change Station
CLOSE
Current Station
Personal Weather Station
Location: Troms, TROMS
Elevation: 30 ft
Nearby Weather Stations

Elev 30 ft 69.06 °N, 16.82 °E | Updated 9 seconds ago

Mostly Cloudy
Mostly Cloudy
26.8 °F
Feels Like 23 °F
N
3.6
Wind Variable Wind from South
Gusts 7.4 mph

Today
High -- | Low -- °F
--% Chance of Precip.
Yesterday
High -- | Low -- °F
Precip. -- in
1:00 AM 1:00 AM
Waning Crescent, 6% visible
Pressure 28.94 in
Visibility 6.2 miles
Clouds Mostly Cloudy 6000 ft
Windchill 23 °F
Dew Point 14 °F
Humidity 58%
Rainfall 0.00 in
Snow Depth Not available.
UV 0.0 out of 12
Pollen Not available.
Air Quality Not available.
Flu Activity Not available.
METAR ENEV 192301Z 03003KT 9999 BKN060 M12/M13 Q0980 RMK

More Conditions Fewer Conditions

Pressure 28.94 in
Visibility 6.2 miles
Clouds Mostly Cloudy 6000 ft
Windchill 23 °F
Dew Point 14 °F
Humidity 58%
Rainfall 0.00 in
Snow Depth Not available.
UV 0.0 out of 12
Pollen Not available.
Air Quality Not available.
Flu Activity Not available.
METAR ENEV 192301Z 03003KT 9999 BKN060 M12/M13 Q0980 RMK

More Conditions Fewer Conditions

10-Day Weather Forecast

Almanac

Astronomy

Dec. 20, 2014 Rise Set
Actual Time
Civil Twilight
Nautical Twilight
Astronomical Twilight
Moon
Length of Visible Light
Length of Day
Tomorrow will be .
, % of the Moon is Illuminated

Today's Extremes

Country Highs Country Lows

Community

WunderPhotos

Upload Photos

1,779,073 photos uploaded!

WunderBlogs® & News

Nearby

Air Quality

  Air Quality AQ Index Pollutant
Not available.

Snow Depth

Station Depth Elevation

Earthquake Activity

City Distance Mag. Time & Date
Minimum magnitude displayed is 2.5.

Coastal Water Temperatures

Place Temperature

Nearby Weather Stations